Time;durP1;ratioP1;P1;durP2;ratioP2;P2;SDS_P1;SDS_P2;PMS_P1;PMS_P2;Temp;Humidity;BMP_temperature;BMP_pressure;BME280_temperature;BME280_humidity;BME280_pressure;Samples;Min_cycle;Max_cycle;Signal;HPM_P1;HPM_P2
2021/07/04 00:02:16;;;;;;;0.77;0.70;;;17.70;99.90;;;-143.50;100.00;58913.53;4995136;28;20493;-72
2021/07/04 00:04:45;;;;;;;0.70;0.70;;;17.80;99.90;;;-143.50;100.00;58913.53;4994570;28;20815;-71
2021/07/04 00:07:12;;;;;;;0.80;0.70;;;17.80;99.90;;;-143.50;100.00;58913.53;4990979;28;20537;-71
2021/07/04 00:09:40;;;;;;;0.70;0.60;;;17.80;99.90;;;-143.50;100.00;58913.53;4993477;28;20476;-71
2021/07/04 00:12:10;;;;;;;0.70;0.67;;;17.80;99.90;;;-143.50;100.00;58913.53;4994067;28;20532;-71
2021/07/04 00:14:37;;;;;;;0.70;0.60;;;17.80;99.90;;;-143.50;100.00;58913.53;4995086;28;20460;-71
2021/07/04 00:17:05;;;;;;;0.90;0.90;;;17.80;99.90;;;-143.50;100.00;58913.53;4993386;28;20442;-71
2021/07/04 00:19:33;;;;;;;0.70;0.70;;;17.80;99.90;;;-143.50;100.00;58913.53;4995013;28;20474;-71
2021/07/04 00:22:02;;;;;;;0.70;0.60;;;17.80;99.90;;;-143.50;100.00;58913.53;4995290;28;20775;-71
2021/07/04 00:24:29;;;;;;;0.80;0.77;;;17.80;99.90;;;-143.50;100.00;58913.53;4991560;28;20473;-71
2021/07/04 00:26:56;;;;;;;0.70;0.60;;;17.80;99.90;;;-143.50;100.00;58913.53;4995293;28;20541;-71
2021/07/04 00:29:24;;;;;;;0.80;0.80;;;17.70;99.90;;;-143.50;100.00;58913.53;4994658;28;20438;-71
2021/07/04 00:31:52;;;;;;;2.20;2.00;;;17.70;99.90;;;-143.50;100.00;58913.53;5009611;28;20863;-71
2021/07/04 00:34:19;;;;;;;0.70;0.70;;;17.70;99.90;;;-143.50;100.00;58913.53;4994133;28;20465;-71
2021/07/04 00:36:47;;;;;;;0.70;0.70;;;17.80;99.90;;;-143.50;100.00;58913.53;4977157;28;20464;-71
2021/07/04 00:39:17;;;;;;;0.70;0.60;;;17.70;99.90;;;-143.50;100.00;58913.53;4989173;28;20898;-72
2021/07/04 00:41:45;;;;;;;0.70;0.70;;;17.70;99.90;;;-143.50;100.00;58913.53;5026134;28;20436;-71
2021/07/04 00:44:13;;;;;;;0.70;0.60;;;17.80;99.90;;;-143.50;100.00;58913.53;4992961;28;20942;-71
2021/07/04 00:46:40;;;;;;;0.70;0.60;;;17.70;99.90;;;-143.50;100.00;58913.53;4978631;28;20498;-72
2021/07/04 00:49:08;;;;;;;0.70;0.60;;;17.70;99.90;;;-143.50;100.00;58913.53;4993021;28;20459;-71
2021/07/04 00:51:36;;;;;;;1.03;1.03;;;17.70;99.90;;;-143.50;100.00;58913.53;4993420;28;20426;-71
2021/07/04 00:54:04;;;;;;;0.70;0.60;;;17.70;99.90;;;-143.50;100.00;58913.53;4993003;28;21068;-71
2021/07/04 00:56:33;;;;;;;0.70;0.70;;;17.70;99.90;;;-143.50;100.00;58913.53;4991989;28;20953;-72
2021/07/04 00:59:01;;;;;;;0.70;0.70;;;17.70;99.90;;;-143.50;100.00;58913.53;5008883;28;20484;-71
2021/07/04 01:01:30;;;;;;;0.70;0.70;;;17.70;99.90;;;-143.50;100.00;58913.53;5009673;28;20815;-71
2021/07/04 01:03:58;;;;;;;0.70;0.60;;;17.70;99.90;;;-143.50;100.00;58913.53;4993138;28;20440;-71
2021/07/04 01:06:26;;;;;;;0.80;0.70;;;17.70;99.90;;;-143.50;100.00;58913.53;4992700;28;20453;-71
2021/07/04 01:08:54;;;;;;;0.70;0.60;;;17.60;99.90;;;-143.50;100.00;58913.53;4992759;28;20470;-71
2021/07/04 01:11:23;;;;;;;0.70;0.70;;;17.60;99.90;;;-143.50;100.00;58913.53;4992379;28;20437;-71
2021/07/04 01:13:52;;;;;;;0.70;0.70;;;17.60;99.90;;;-143.50;100.00;58913.53;4977778;28;20447;-71
2021/07/04 01:16:20;;;;;;;0.70;0.70;;;17.60;99.90;;;-143.50;100.00;58913.53;5024385;28;20552;-71
2021/07/04 01:18:49;;;;;;;0.70;0.70;;;17.60;99.90;;;-143.50;100.00;58913.53;4992037;28;20458;-71
2021/07/04 01:21:31;;;;;;;0.70;0.63;;;17.50;99.90;;;-143.50;100.00;58913.53;4992729;28;20971;-71
2021/07/04 01:24:00;;;;;;;0.70;0.60;;;17.50;99.90;;;-143.50;100.00;58913.53;4990995;28;20541;-71
2021/07/04 01:26:28;;;;;;;0.70;0.60;;;17.40;99.90;;;-143.50;100.00;58913.53;5024799;28;20545;-71
2021/07/04 01:28:56;;;;;;;0.80;0.70;;;17.40;99.90;;;-143.50;100.00;58913.53;4993728;28;20438;-71
2021/07/04 01:31:26;;;;;;;0.80;0.73;;;17.30;99.90;;;-143.50;100.00;58913.53;4992358;28;20428;-71
2021/07/04 01:34:00;;;;;;;0.70;0.60;;;17.30;99.90;;;-143.50;100.00;58913.53;4992683;28;20474;-71
2021/07/04 01:36:35;;;;;;;0.77;0.70;;;17.20;99.90;;;-143.50;100.00;58913.53;4993502;28;20457;-71
2021/07/04 01:39:06;;;;;;;0.70;0.60;;;17.20;99.90;;;-143.50;100.00;58913.53;4991634;28;20512;-71
2021/07/04 01:41:42;;;;;;;0.70;0.70;;;17.20;99.90;;;-143.50;100.00;58913.53;4992109;28;20534;-71
2021/07/04 01:44:18;;;;;;;0.73;0.67;;;17.20;99.90;;;-143.50;100.00;58913.53;4992384;28;20446;-71
2021/07/04 01:46:47;;;;;;;0.70;0.60;;;17.10;99.90;;;-143.50;100.00;58913.53;4993702;28;20514;-71
2021/07/04 01:49:15;;;;;;;0.80;0.70;;;17.10;99.90;;;-143.50;100.00;58913.53;4975825;28;21016;-71
2021/07/04 01:51:44;;;;;;;0.70;0.60;;;17.10;99.90;;;-143.50;100.00;58913.53;4978781;28;20439;-71
2021/07/04 01:54:21;;;;;;;0.70;0.60;;;17.10;99.90;;;-143.50;100.00;58913.53;4997239;28;20435;-71
2021/07/04 01:56:49;;;;;;;0.80;0.70;;;17.20;99.90;;;-143.50;100.00;58913.53;4990509;28;20471;-71
2021/07/04 01:59:17;;;;;;;0.70;0.60;;;17.20;99.90;;;-143.50;100.00;58913.53;4994994;28;20511;-71
2021/07/04 02:02:03;;;;;;;0.70;0.60;;;17.30;99.90;;;-143.50;100.00;58913.53;5024354;28;20456;-71
2021/07/04 02:04:40;;;;;;;0.70;0.60;;;17.40;99.90;;;-143.50;100.00;58913.53;4996025;28;20953;-71
2021/07/04 02:07:20;;;;;;;0.80;0.70;;;17.50;99.90;;;-143.50;100.00;58913.53;4995538;28;20500;-71
2021/07/04 02:09:54;;;;;;;0.70;0.60;;;17.50;99.90;;;-143.50;100.00;58913.53;4996075;28;20451;-71
2021/07/04 02:12:28;;;;;;;0.80;0.70;;;17.60;99.90;;;-143.50;100.00;58913.53;4997501;28;20418;-71
2021/07/04 02:14:56;;;;;;;0.70;0.63;;;17.60;99.90;;;-143.50;100.00;58913.53;4995864;28;20526;-71
2021/07/04 02:17:34;;;;;;;0.70;0.60;;;17.60;99.90;;;-143.50;100.00;58913.53;5008963;28;20450;-71
2021/07/04 02:20:43;;;;;;;0.70;0.63;;;17.60;99.90;;;-143.50;100.00;58913.53;4949571;29;20448;-72
2021/07/04 02:23:27;;;;;;;0.90;0.90;;;17.50;99.90;;;-143.50;100.00;58913.53;4940263;29;20834;-71
2021/07/04 02:26:19;;;;;;;0.70;0.60;;;17.50;99.90;;;-143.50;100.00;58913.53;4982582;28;20442;-71
2021/07/04 02:28:50;;;;;;;0.70;0.60;;;17.60;99.90;;;-143.50;100.00;58913.53;4995819;28;20441;-71
2021/07/04 02:31:31;;;;;;;0.70;0.70;;;17.50;99.90;;;-143.50;100.00;58913.53;4996025;28;20461;-71
2021/07/04 02:34:00;;;;;;;0.80;0.70;;;17.50;99.90;;;-143.50;100.00;58913.53;4995046;28;20524;-71
2021/07/04 02:36:34;;;;;;;0.70;0.60;;;17.50;99.90;;;-143.50;100.00;58913.53;4995705;28;20479;-72
2021/07/04 02:39:15;;;;;;;0.70;0.70;;;17.50;99.90;;;-143.50;100.00;58913.53;4994671;28;20902;-71
2021/07/04 02:41:45;;;;;;;0.70;0.60;;;17.40;99.90;;;-143.50;100.00;58913.53;4995291;28;20439;-71
2021/07/04 02:44:15;;;;;;;0.70;0.60;;;17.40;99.90;;;-143.50;100.00;58913.53;4995716;28;20421;-71
2021/07/04 02:46:45;;;;;;;1.33;1.23;;;17.40;99.90;;;-143.50;100.00;58913.53;4994690;28;20453;-71
2021/07/04 02:49:13;;;;;;;0.70;0.60;;;17.40;99.90;;;-143.50;100.00;58913.53;4995704;28;20523;-71
2021/07/04 02:51:43;;;;;;;0.80;0.70;;;17.50;99.90;;;-143.50;100.00;58913.53;4979624;28;20451;-71
2021/07/04 02:54:13;;;;;;;0.70;0.60;;;17.50;99.90;;;-143.50;100.00;58913.53;4995437;28;20525;-71
2021/07/04 02:56:55;;;;;;;0.80;0.77;;;17.50;99.90;;;-143.50;100.00;58913.53;4995503;28;20519;-71
2021/07/04 02:59:24;;;;;;;0.80;0.70;;;17.50;99.90;;;-143.50;100.00;58913.53;4994456;28;20460;-71
2021/07/04 03:01:52;;;;;;;0.80;0.70;;;17.50;99.90;;;-143.50;100.00;58913.53;4995895;28;20438;-71
2021/07/04 03:04:20;;;;;;;0.70;0.70;;;17.50;99.90;;;-143.50;100.00;58913.53;4995092;28;20450;-71
2021/07/04 03:06:48;;;;;;;0.70;0.70;;;17.50;99.90;;;-143.50;100.00;58913.53;4995373;28;20432;-71
2021/07/04 03:09:17;;;;;;;0.70;0.60;;;17.40;99.90;;;-143.50;100.00;58913.53;4994964;28;20997;-71
2021/07/04 03:11:45;;;;;;;0.70;0.60;;;17.40;99.90;;;-143.50;100.00;58913.53;4995943;28;20421;-71
2021/07/04 03:14:15;;;;;;;0.70;0.70;;;17.30;99.90;;;-143.50;100.00;58913.53;5027037;28;20509;-71
2021/07/04 03:16:43;;;;;;;0.80;0.60;;;17.20;99.90;;;-143.50;100.00;58913.53;4993785;28;21052;-71
2021/07/04 03:19:12;;;;;;;0.80;0.70;;;17.20;99.90;;;-143.50;100.00;58913.53;4994816;28;20448;-71
2021/07/04 03:21:40;;;;;;;0.70;0.60;;;17.10;99.90;;;-143.50;100.00;58913.53;4996072;28;20443;-71
2021/07/04 03:24:11;;;;;;;1.63;1.53;;;17.00;99.90;;;-143.50;100.00;58913.53;5011882;28;20478;-71
2021/07/04 03:26:40;;;;;;;1.07;0.80;;;17.00;99.90;;;-143.50;100.00;58913.53;4994621;28;20438;-72
2021/07/04 03:29:08;;;;;;;0.70;0.70;;;17.00;99.90;;;-143.50;100.00;58913.53;4994335;28;20444;-71
2021/07/04 03:31:43;;;;;;;0.70;0.70;;;17.00;99.90;;;-143.50;100.00;58913.53;4995355;28;21023;-71
2021/07/04 03:34:14;;;;;;;0.70;0.70;;;17.00;99.90;;;-143.50;100.00;58913.53;4994850;28;20444;-72
2021/07/04 03:36:44;;;;;;;0.70;0.70;;;17.00;99.90;;;-143.50;100.00;58913.53;4994463;28;20546;-71
2021/07/04 03:39:13;;;;;;;0.70;0.70;;;17.10;99.90;;;-143.50;100.00;58913.53;4994572;28;20461;-71
2021/07/04 03:41:44;;;;;;;0.70;0.63;;;17.10;99.90;;;-143.50;100.00;58913.53;4994153;28;20454;-71
2021/07/04 03:44:12;;;;;;;0.70;0.70;;;17.20;99.90;;;-143.50;100.00;58913.53;4995452;28;20483;-71
2021/07/04 03:46:44;;;;;;;0.73;0.70;;;17.20;99.90;;;-143.50;100.00;58913.53;4995735;28;20429;-71
2021/07/04 03:49:13;;;;;;;0.70;0.70;;;17.30;99.90;;;-143.50;100.00;58913.53;4993486;28;20551;-71
2021/07/04 03:51:56;;;;;;;0.70;0.60;;;17.30;99.90;;;-143.50;100.00;58913.53;4993576;28;20547;-71
2021/07/04 03:54:26;;;;;;;0.70;0.60;;;17.30;99.90;;;-143.50;100.00;58913.53;4993597;28;20479;-71
2021/07/04 03:56:54;;;;;;;0.70;0.60;;;17.40;99.90;;;-143.50;100.00;58913.53;4993877;28;20531;-71
2021/07/04 03:59:22;;;;;;;0.70;0.70;;;17.40;99.90;;;-143.50;100.00;58913.53;4995193;28;20434;-72
2021/07/04 04:01:51;;;;;;;0.70;0.60;;;17.50;99.90;;;-143.50;100.00;58913.53;4994596;28;20452;-71
2021/07/04 04:04:21;;;;;;;0.70;0.60;;;17.50;99.90;;;-143.50;100.00;58913.53;4977987;28;20453;-71
2021/07/04 04:06:50;;;;;;;0.70;0.60;;;17.60;99.90;;;-143.50;100.00;58913.53;4993508;28;20456;-71
2021/07/04 04:09:19;;;;;;;0.70;0.63;;;17.70;99.90;;;-143.50;100.00;58913.53;4993501;28;20489;-71
2021/07/04 04:11:59;;;;;;;0.80;0.70;;;17.70;99.90;;;-143.50;100.00;58913.53;4993756;28;20460;-71
2021/07/04 04:14:34;;;;;;;0.70;0.60;;;17.80;99.90;;;-143.50;100.00;58913.53;4994371;28;20421;-71
2021/07/04 04:17:07;;;;;;;0.70;0.60;;;17.80;99.90;;;-143.50;100.00;58913.53;4995202;28;20464;-71
2021/07/04 04:19:39;;;;;;;0.70;0.67;;;17.80;99.90;;;-143.50;100.00;58913.53;4993533;28;20447;-71
2021/07/04 04:22:07;;;;;;;0.70;0.60;;;17.90;99.90;;;-143.50;100.00;58913.53;4994412;28;20421;-71
2021/07/04 04:24:44;;;;;;;0.80;0.70;;;18.00;99.90;;;-143.50;100.00;58913.53;5026536;28;20459;-71
2021/07/04 04:27:12;;;;;;;0.70;0.63;;;18.10;99.90;;;-143.50;100.00;58913.53;4993430;28;20467;-71
2021/07/04 04:29:42;;;;;;;0.70;0.70;;;18.20;99.90;;;-143.50;100.00;58913.53;5026149;28;20537;-71
2021/07/04 04:32:14;;;;;;;0.80;0.73;;;18.30;99.90;;;-143.50;100.00;58913.53;5026245;28;20532;-71
2021/07/04 04:34:42;;;;;;;0.70;0.70;;;18.30;99.90;;;-143.50;100.00;58913.53;5026444;28;21044;-71
2021/07/04 04:37:11;;;;;;;0.70;0.60;;;18.40;99.90;;;-143.50;100.00;58913.53;5025941;28;20498;-71
2021/07/04 04:39:39;;;;;;;0.70;0.60;;;18.30;99.90;;;-143.50;100.00;58913.53;4992718;28;20467;-71
2021/07/04 04:42:06;;;;;;;0.70;0.60;;;18.20;99.90;;;-143.50;100.00;58913.53;4993648;28;20491;-71
2021/07/04 04:44:35;;;;;;;0.70;0.60;;;18.20;99.90;;;-143.50;100.00;58913.53;4992552;28;20484;-72
2021/07/04 04:47:06;;;;;;;0.70;0.70;;;18.20;99.90;;;-143.50;100.00;58913.53;4993191;28;20448;-72
2021/07/04 04:49:36;;;;;;;0.70;0.70;;;18.10;99.90;;;-143.50;100.00;58913.53;4994111;28;20458;-72
2021/07/04 04:52:05;;;;;;;0.70;0.60;;;18.10;99.90;;;-143.50;100.00;58913.53;4994132;28;20456;-71
2021/07/04 04:54:32;;;;;;;0.70;0.60;;;18.00;99.90;;;-143.50;100.00;58913.53;4994474;28;20854;-72
2021/07/04 04:57:05;;;;;;;0.70;0.60;;;18.00;99.90;;;-143.50;100.00;58913.53;4992416;28;21034;-71
2021/07/04 04:59:34;;;;;;;0.70;0.60;;;18.10;99.90;;;-143.50;100.00;58913.53;4992997;28;20449;-71
2021/07/04 05:02:03;;;;;;;0.70;0.70;;;18.10;99.90;;;-143.50;100.00;58913.53;4993052;28;20540;-71
2021/07/04 05:04:32;;;;;;;0.70;0.70;;;18.10;99.90;;;-143.50;100.00;58913.53;4993809;28;20768;-71
2021/07/04 05:07:01;;;;;;;0.70;0.70;;;18.10;99.90;;;-143.50;100.00;58913.53;4994126;28;20451;-71
2021/07/04 05:09:29;;;;;;;0.80;0.80;;;18.10;99.90;;;-143.50;100.00;58913.53;4992838;28;20463;-71
2021/07/04 05:11:56;;;;;;;0.80;0.73;;;18.10;99.90;;;-143.50;100.00;58913.53;4994120;28;20520;-71
2021/07/04 05:14:24;;;;;;;0.70;0.60;;;18.00;99.90;;;-143.50;100.00;58913.53;4992494;28;20453;-71
2021/07/04 05:16:52;;;;;;;0.70;0.60;;;18.00;99.90;;;-143.50;100.00;58913.53;4993762;28;20915;-71
2021/07/04 05:19:20;;;;;;;0.70;0.60;;;17.90;99.90;;;-143.50;100.00;58913.53;4993978;28;20434;-71
2021/07/04 05:21:48;;;;;;;0.70;0.60;;;17.90;99.90;;;-143.50;100.00;58913.53;4994180;28;20447;-71
2021/07/04 05:24:16;;;;;;;0.70;0.70;;;17.90;99.90;;;-143.50;100.00;58913.53;4992456;28;20931;-72
2021/07/04 05:26:44;;;;;;;1.20;1.10;;;17.90;99.90;;;-143.50;100.00;58913.53;4993621;28;20414;-71
2021/07/04 05:29:11;;;;;;;0.70;0.60;;;17.90;99.90;;;-143.50;100.00;58913.53;4992100;28;20526;-71
2021/07/04 05:31:39;;;;;;;0.70;0.70;;;17.90;99.90;;;-143.50;100.00;58913.53;4993740;28;20955;-71
2021/07/04 05:34:06;;;;;;;0.70;0.60;;;17.90;99.90;;;-143.50;100.00;58913.53;4993267;28;20927;-71
2021/07/04 05:36:34;;;;;;;0.70;0.60;;;17.90;99.90;;;-143.50;100.00;58913.53;4993357;28;20833;-71
2021/07/04 05:39:02;;;;;;;0.70;0.70;;;17.90;99.90;;;-143.50;100.00;58913.53;4993763;28;21125;-71
2021/07/04 05:41:31;;;;;;;0.70;0.60;;;17.90;99.90;;;-143.50;100.00;58913.53;4993341;28;20480;-71
2021/07/04 05:43:59;;;;;;;0.70;0.70;;;18.00;99.90;;;-143.50;100.00;58913.53;4993139;28;20529;-72
2021/07/04 05:46:26;;;;;;;0.80;0.80;;;18.20;99.90;;;-143.50;100.00;58913.53;4991596;28;20447;-72
2021/07/04 05:48:54;;;;;;;0.70;0.60;;;18.20;99.90;;;-143.50;100.00;58913.53;4993860;28;20431;-71
2021/07/04 05:51:24;;;;;;;0.80;0.70;;;18.30;99.90;;;-143.50;100.00;58913.53;4991505;28;20512;-72
2021/07/04 05:53:51;;;;;;;0.70;0.60;;;18.40;99.90;;;-143.50;100.00;58913.53;4992978;28;20500;-71
2021/07/04 05:56:19;;;;;;;0.80;0.70;;;18.40;99.90;;;-143.50;100.00;58913.53;4993679;28;20462;-72
2021/07/04 05:58:48;;;;;;;0.73;0.70;;;18.50;99.90;;;-143.50;100.00;58913.53;4992328;28;20939;-71
2021/07/04 06:01:16;;;;;;;0.70;0.70;;;18.60;99.90;;;-143.50;100.00;58913.53;4993094;28;20483;-71
2021/07/04 06:03:43;;;;;;;0.70;0.60;;;18.50;99.90;;;-143.50;100.00;58913.53;4990943;28;20890;-71
2021/07/04 06:06:10;;;;;;;0.80;0.80;;;18.40;99.90;;;-143.50;100.00;58913.53;4992168;28;20421;-71
2021/07/04 06:08:38;;;;;;;0.70;0.67;;;18.40;99.90;;;-143.50;100.00;58913.53;4994003;28;20901;-71
2021/07/04 06:11:05;;;;;;;0.70;0.60;;;18.40;99.90;;;-143.50;100.00;58913.53;4991769;28;20417;-71
2021/07/04 06:13:33;;;;;;;0.70;0.60;;;18.50;99.90;;;-143.50;100.00;58913.53;4993196;28;20854;-71
2021/07/04 06:16:02;;;;;;;0.73;0.70;;;18.60;99.90;;;-143.50;100.00;58913.53;4993391;28;20836;-71
2021/07/04 06:18:29;;;;;;;0.70;0.70;;;18.60;99.90;;;-143.50;100.00;58913.53;4993165;28;20534;-71
2021/07/04 06:20:57;;;;;;;0.70;0.70;;;18.70;99.90;;;-143.50;100.00;58913.53;4991374;28;20482;-71
2021/07/04 06:23:24;;;;;;;0.80;0.70;;;18.70;99.90;;;-143.50;100.00;58913.53;4993421;28;20537;-71
2021/07/04 06:25:52;;;;;;;0.80;0.77;;;18.90;99.90;;;-143.50;100.00;58913.53;4993134;28;20478;-71
2021/07/04 06:28:20;;;;;;;0.70;0.70;;;19.00;99.90;;;-143.50;100.00;58913.53;4992536;28;20438;-71
2021/07/04 06:30:49;;;;;;;0.70;0.70;;;19.20;99.90;;;-143.50;100.00;58913.53;4993427;28;20751;-71
2021/07/04 06:33:18;;;;;;;0.77;0.70;;;19.30;99.90;;;-143.50;100.00;58913.53;4993218;28;20435;-71
2021/07/04 06:35:45;;;;;;;0.70;0.70;;;19.60;99.90;;;-143.50;100.00;58913.53;4993897;28;20438;-70
2021/07/04 06:38:14;;;;;;;0.80;0.80;;;19.60;99.90;;;-143.50;100.00;58913.53;4994342;28;20534;-71
2021/07/04 06:40:41;;;;;;;0.70;0.70;;;19.80;99.90;;;-143.50;100.00;58913.53;4996963;28;20429;-71
2021/07/04 06:43:09;;;;;;;0.70;0.60;;;20.00;99.90;;;-143.50;100.00;58913.53;4996782;28;20442;-71
2021/07/04 06:45:41;;;;;;;0.70;0.67;;;20.20;99.90;;;-143.50;100.00;58913.53;5026239;28;20443;-71
2021/07/04 06:48:08;;;;;;;0.70;0.60;;;20.40;99.90;;;-143.50;100.00;58913.53;4996422;28;20468;-71
2021/07/04 06:50:37;;;;;;;0.70;0.70;;;20.50;99.90;;;-143.50;100.00;58913.53;4993493;28;20393;-71
2021/07/04 06:53:05;;;;;;;0.80;0.70;;;20.60;99.90;;;-143.50;100.00;58913.53;4994826;28;20439;-71
2021/07/04 06:55:33;;;;;;;1.23;1.13;;;20.60;99.90;;;-143.50;100.00;58913.53;4977248;28;20406;-71
2021/07/04 06:58:00;;;;;;;0.77;0.70;;;20.70;99.90;;;-143.50;100.00;58913.53;4976898;28;20822;-71
2021/07/04 07:00:28;;;;;;;0.70;0.60;;;20.80;99.90;;;-143.50;100.00;58913.53;4987456;28;20443;-71
2021/07/04 07:02:55;;;;;;;0.80;0.70;;;20.90;99.90;;;-143.50;100.00;58913.53;4996488;28;20496;-71
2021/07/04 07:05:23;;;;;;;0.70;0.60;;;21.00;99.90;;;-143.50;100.00;58913.53;4994408;28;20417;-71
2021/07/04 07:07:52;;;;;;;0.80;0.70;;;21.00;99.90;;;-143.50;100.00;58913.53;4996630;28;20452;-71
2021/07/04 07:10:20;;;;;;;0.70;0.63;;;21.10;99.90;;;-143.50;100.00;58913.53;5022141;28;20923;-71
2021/07/04 07:12:49;;;;;;;0.70;0.60;;;21.30;99.90;;;-143.50;100.00;58913.53;4981588;28;20495;-71
2021/07/04 07:15:22;;;;;;;0.70;0.60;;;21.50;99.90;;;-143.50;100.00;58913.53;4978695;28;20461;-71
2021/07/04 07:17:50;;;;;;;0.70;0.60;;;21.70;99.90;;;-143.50;100.00;58913.53;4994157;28;20448;-71
2021/07/04 07:20:18;;;;;;;0.70;0.60;;;21.90;99.90;;;-143.50;100.00;58913.53;4996175;28;20421;-71
2021/07/04 07:22:46;;;;;;;0.80;0.80;;;22.00;99.90;;;-143.50;100.00;58913.53;4996217;28;20463;-71
2021/07/04 07:25:21;;;;;;;0.70;0.60;;;22.20;99.90;;;-143.50;100.00;58913.53;4994838;28;20970;-71
2021/07/04 07:27:52;;;;;;;1.00;0.97;;;22.20;99.90;;;-143.50;100.00;58913.53;4996089;28;20799;-71
2021/07/04 07:30:22;;;;;;;0.70;0.60;;;22.30;99.90;;;-143.50;100.00;58913.53;4995422;28;20457;-71
2021/07/04 07:32:50;;;;;;;0.80;0.70;;;22.30;99.90;;;-143.50;100.00;58913.53;5025771;28;20473;-71
2021/07/04 07:35:18;;;;;;;0.70;0.60;;;22.40;99.90;;;-143.50;100.00;58913.53;4994981;28;20415;-71
2021/07/04 07:37:51;;;;;;;0.70;0.60;;;22.50;99.90;;;-143.50;100.00;58913.53;4994541;28;20478;-71
2021/07/04 07:40:20;;;;;;;0.73;0.70;;;22.60;99.90;;;-143.50;100.00;58913.53;4996025;28;20490;-71
2021/07/04 07:42:53;;;;;;;0.73;0.60;;;22.70;99.90;;;-143.50;100.00;58913.53;4995388;28;20406;-71
2021/07/04 07:45:21;;;;;;;0.70;0.60;;;22.70;99.90;;;-143.50;100.00;58913.53;4993985;28;20448;-71
2021/07/04 07:47:54;;;;;;;0.70;0.70;;;22.60;99.90;;;-143.50;100.00;58913.53;4994780;28;20462;-71
2021/07/04 07:50:24;;;;;;;0.70;0.60;;;22.50;99.90;;;-143.50;100.00;58913.53;4992829;28;20979;-71
2021/07/04 07:52:52;;;;;;;0.80;0.70;;;22.40;99.90;;;-143.50;100.00;58913.53;4995324;28;20450;-71
2021/07/04 07:55:22;;;;;;;0.90;0.80;;;22.60;99.90;;;-143.50;100.00;58913.53;4993898;28;20510;-71
2021/07/04 07:57:49;;;;;;;0.70;0.60;;;22.90;99.90;;;-143.50;100.00;58913.53;4994236;28;20459;-70
2021/07/04 08:00:19;;;;;;;0.80;0.80;;;23.10;99.90;;;-143.50;100.00;58913.53;4994505;28;20537;-71
2021/07/04 08:03:05;;;;;;;0.80;0.60;;;23.20;99.90;;;-143.50;100.00;58913.53;4994336;28;20458;-71
2021/07/04 08:05:32;;;;;;;0.70;0.60;;;23.30;99.90;;;-143.50;100.00;58913.53;4992454;28;20439;-71
2021/07/04 08:08:00;;;;;;;0.80;0.70;;;23.50;99.90;;;-143.50;100.00;58913.53;4993814;28;20870;-71
2021/07/04 08:10:35;;;;;;;0.70;0.60;;;23.70;99.90;;;-143.50;100.00;58913.53;4993912;28;20459;-71
2021/07/04 08:13:03;;;;;;;0.70;0.50;;;24.10;99.90;;;-143.50;100.00;58913.53;4992698;28;20446;-71
2021/07/04 08:15:32;;;;;;;0.70;0.60;;;24.20;99.90;;;-143.50;100.00;58913.53;4989818;28;20439;-71
2021/07/04 08:18:04;;;;;;;0.80;0.60;;;24.60;99.90;;;-143.50;100.00;58913.53;4989076;28;20549;-71
2021/07/04 08:20:32;;;;;;;0.70;0.50;;;25.00;99.90;;;-143.50;100.00;58913.53;4988933;28;20439;-72
2021/07/04 08:23:00;;;;;;;0.70;0.60;;;25.30;99.90;;;-143.50;100.00;58913.53;4993593;28;20458;-72
2021/07/04 08:25:29;;;;;;;0.70;0.50;;;25.50;99.90;;;-143.50;100.00;58913.53;4994728;28;20423;-71
2021/07/04 08:27:58;;;;;;;0.80;0.70;;;25.30;99.90;;;-143.50;100.00;58913.53;4993203;28;20938;-72
2021/07/04 08:30:26;;;;;;;0.70;0.50;;;25.20;99.90;;;-143.50;100.00;58913.53;4994318;28;20438;-71
2021/07/04 08:32:54;;;;;;;0.70;0.60;;;24.80;99.90;;;-143.50;100.00;58913.53;4992419;28;20415;-71
2021/07/04 08:35:21;;;;;;;0.70;0.60;;;24.60;99.90;;;-143.50;100.00;58913.53;4987150;28;20455;-71
2021/07/04 08:37:49;;;;;;;0.73;0.60;;;24.30;99.90;;;-143.50;100.00;58913.53;4988567;28;21012;-71
2021/07/04 08:40:16;;;;;;;0.70;0.50;;;24.20;99.90;;;-143.50;100.00;58913.53;4992979;28;20446;-71
2021/07/04 08:42:44;;;;;;;0.70;0.60;;;24.50;99.90;;;-143.50;100.00;58913.53;4994518;28;20411;-71
2021/07/04 08:45:13;;;;;;;0.70;0.60;;;24.60;99.90;;;-143.50;100.00;58913.53;4992257;28;20852;-71
2021/07/04 08:47:41;;;;;;;0.70;0.50;;;24.80;99.90;;;-143.50;100.00;58913.53;4994029;28;20434;-72
2021/07/04 08:50:12;;;;;;;0.70;0.60;;;25.30;99.90;;;-143.50;100.00;58913.53;4993448;28;20442;-71
2021/07/04 08:52:40;;;;;;;0.70;0.70;;;25.60;99.90;;;-143.50;100.00;58913.53;4994312;28;20454;-71
2021/07/04 08:55:11;;;;;;;0.70;0.60;;;25.90;99.90;;;-143.50;100.00;58913.53;4992839;28;20446;-71
2021/07/04 08:57:39;;;;;;;0.70;0.50;;;26.60;99.90;;;-143.50;100.00;58913.53;5025375;28;20550;-71
2021/07/04 09:00:14;;;;;;;0.70;0.50;;;27.30;99.90;;;-143.50;100.00;58913.53;4985270;28;20466;-71
2021/07/04 09:02:44;;;;;;;0.70;0.50;;;27.90;99.90;;;-143.50;100.00;58913.53;5018475;28;20431;-71
2021/07/04 09:05:13;;;;;;;0.70;0.50;;;28.30;99.90;;;-143.50;100.00;58913.53;4985017;28;20440;-71
2021/07/04 09:07:42;;;;;;;0.70;0.50;;;28.30;99.90;;;-143.50;100.00;58913.53;4997822;28;20857;-71
2021/07/04 09:10:13;;;;;;;0.70;0.50;;;27.80;99.90;;;-143.50;100.00;58913.53;4988604;28;20965;-72
2021/07/04 09:12:49;;;;;;;0.70;0.50;;;27.90;99.90;;;-143.50;100.00;58913.53;4981695;28;20545;-71
2021/07/04 09:15:19;;;;;;;0.70;0.50;;;28.50;99.90;;;-143.50;100.00;58913.53;4992344;28;20442;-72
2021/07/04 09:17:52;;;;;;;0.70;0.50;;;28.10;99.90;;;-143.50;100.00;58913.53;4993284;28;21029;-71
2021/07/04 09:20:37;;;;;;;0.70;0.50;;;27.80;99.90;;;-143.50;100.00;58913.53;4982333;28;20479;-72
2021/07/04 09:23:06;;;;;;;0.70;0.53;;;27.70;99.90;;;-143.50;100.00;58913.53;5005662;28;20481;-72
2021/07/04 09:25:38;;;;;;;0.70;0.50;;;27.70;99.90;;;-143.50;100.00;58913.53;4973238;28;20431;-72
2021/07/04 09:28:08;;;;;;;0.70;0.50;;;27.90;99.90;;;-143.50;100.00;58913.53;4989560;28;20486;-71
2021/07/04 09:30:38;;;;;;;0.70;0.50;;;29.00;99.90;;;-143.50;100.00;58913.53;4993113;28;20435;-71
2021/07/04 09:33:15;;;;;;;0.70;0.50;;;29.80;99.90;;;-143.50;100.00;58913.53;4992410;28;20435;-72
2021/07/04 09:35:57;;;;;;;0.80;0.50;;;30.70;99.90;;;-143.50;100.00;58913.53;4993608;28;20816;-71
2021/07/04 09:38:29;;;;;;;0.80;0.50;;;31.70;99.90;;;-143.50;100.00;58913.53;4992401;28;20470;-72
2021/07/04 09:40:58;;;;;;;0.80;0.50;;;32.30;99.90;;;-143.50;100.00;58913.53;5023223;28;20450;-72
2021/07/04 09:43:30;;;;;;;0.80;0.50;;;31.90;94.70;;;-143.50;100.00;58913.53;4991886;28;20533;-71
2021/07/04 09:45:59;;;;;;;0.80;0.50;;;30.90;92.30;;;-143.50;100.00;58913.53;5001737;28;20792;-72
2021/07/04 09:48:41;;;;;;;0.80;0.60;;;29.80;89.60;;;-143.50;100.00;58913.53;4993627;28;20425;-72
2021/07/04 09:51:15;;;;;;;0.70;0.50;;;28.90;93.60;;;-143.50;100.00;58913.53;4986058;28;20844;-71
2021/07/04 09:53:45;;;;;;;1.20;0.90;;;28.30;92.60;;;-143.50;100.00;58913.53;4993620;28;20494;-73
2021/07/04 09:56:16;;;;;;;0.80;0.60;;;27.50;94.40;;;-143.50;100.00;58913.53;5006356;28;20465;-71
2021/07/04 09:58:46;;;;;;;0.80;0.60;;;26.90;99.00;;;-143.50;100.00;58913.53;4986521;28;20574;-71
2021/07/04 10:01:33;;;;;;;0.70;0.50;;;26.20;99.90;;;-143.50;100.00;58913.53;4991801;28;20446;-72
2021/07/04 10:04:08;;;;;;;0.70;0.50;;;25.80;99.90;;;-143.50;100.00;58913.53;4989136;28;20436;-72
2021/07/04 10:06:46;;;;;;;0.80;0.60;;;25.50;99.90;;;-143.50;100.00;58913.53;4973701;28;20470;-71
2021/07/04 10:09:14;;;;;;;0.80;0.60;;;25.10;99.90;;;-143.50;100.00;58913.53;4978236;28;20907;-71
2021/07/04 10:11:42;;;;;;;0.80;0.60;;;24.70;99.90;;;-143.50;100.00;58913.53;5024600;28;20416;-70
2021/07/04 10:14:09;;;;;;;0.80;0.70;;;24.50;99.90;;;-143.50;100.00;58913.53;4996683;28;20923;-71